createdAt,value
2018-01-17T00:01:08.654Z,3.33
2018-01-17T00:03:40.043Z,3.28
2018-01-17T00:06:12.579Z,2.03
2018-01-17T00:08:43.794Z,2.37
2018-01-17T00:11:14.789Z,2.50
2018-01-17T00:13:46.814Z,2.47
2018-01-17T00:16:18.851Z,4.20
2018-01-17T00:18:50.014Z,3.05
2018-01-17T00:21:22.039Z,3.12
2018-01-17T00:23:54.061Z,3.08
2018-01-17T00:26:25.390Z,2.70
2018-01-17T00:28:57.180Z,4.65
2018-01-17T00:31:28.369Z,3.37
2018-01-17T00:34:00.073Z,3.42
2018-01-17T00:36:32.793Z,2.83
2018-01-17T00:39:04.474Z,3.03
2018-01-17T00:41:37.642Z,2.78
2018-01-17T00:44:09.912Z,2.92
2018-01-17T00:46:41.969Z,5.22
2018-01-17T00:49:13.544Z,4.12
2018-01-17T00:51:45.655Z,3.58
2018-01-17T00:54:16.919Z,4.75
2018-01-17T00:56:48.481Z,3.10
2018-01-17T00:59:21.331Z,2.50
2018-01-17T01:01:53.319Z,3.47
2018-01-17T01:04:24.900Z,4.03
2018-01-17T01:06:56.413Z,4.35
2018-01-17T01:09:28.071Z,6.32
2018-01-17T01:12:00.416Z,3.75
2018-01-17T01:14:34.347Z,3.60
2018-01-17T01:17:08.137Z,4.70
2018-01-17T01:19:40.144Z,4.32
2018-01-17T01:22:12.238Z,4.93
2018-01-17T01:24:43.842Z,6.20
2018-01-17T01:27:14.876Z,5.32
2018-01-17T01:29:46.102Z,3.50
2018-01-17T01:32:17.724Z,3.90
2018-01-17T01:34:48.730Z,3.90
2018-01-17T01:37:20.086Z,3.60
2018-01-17T01:39:52.080Z,4.05
2018-01-17T01:42:24.067Z,4.65
2018-01-17T01:44:56.370Z,4.53
2018-01-17T01:47:27.324Z,5.55
2018-01-17T01:49:59.328Z,4.65
2018-01-17T01:52:31.052Z,5.65
2018-01-17T01:55:02.902Z,3.37
2018-01-17T01:57:37.038Z,3.08
2018-01-17T02:00:07.845Z,2.15
2018-01-17T02:02:39.872Z,4.75
2018-01-17T02:05:11.316Z,3.20
2018-01-17T02:07:43.083Z,2.42
2018-01-17T02:10:15.430Z,3.33
2018-01-17T02:12:49.285Z,5.15
2018-01-17T02:15:21.440Z,2.60
2018-01-17T02:17:53.463Z,4.12
2018-01-17T02:20:25.733Z,7.82
2018-01-17T02:22:57.752Z,2.58
2018-01-17T02:25:31.218Z,5.37
2018-01-17T02:28:03.708Z,3.00
2018-01-17T02:30:36.969Z,5.12
2018-01-17T02:33:09.361Z,4.90
2018-01-17T02:35:41.181Z,3.25
2018-01-17T02:38:13.222Z,3.10
2018-01-17T02:40:44.249Z,3.58
2018-01-17T02:43:16.331Z,5.30
2018-01-17T02:45:48.136Z,3.22
2018-01-17T02:48:20.211Z,3.17
2018-01-17T02:50:51.912Z,3.55
2018-01-17T02:53:23.966Z,2.70
2018-01-17T02:55:55.842Z,4.43
2018-01-17T02:58:27.516Z,2.75
2018-01-17T03:00:59.137Z,4.72
2018-01-17T03:03:35.203Z,5.72
2018-01-17T03:06:09.250Z,4.32
2018-01-17T03:08:41.374Z,2.00
2018-01-17T03:11:12.667Z,3.20
2018-01-17T03:13:44.147Z,3.90
2018-01-17T03:16:15.569Z,2.80
2018-01-17T03:18:49.124Z,4.62
2018-01-17T03:21:20.657Z,2.92
2018-01-17T03:23:52.638Z,2.67
2018-01-17T03:26:24.399Z,2.62
2018-01-17T03:28:56.927Z,2.67
2018-01-17T03:31:28.133Z,1.85
2018-01-17T03:33:59.832Z,3.75
2018-01-17T03:36:32.658Z,5.80
2018-01-17T03:39:05.747Z,5.18
2018-01-17T03:41:40.267Z,2.08
2018-01-17T03:44:11.822Z,4.25
2018-01-17T03:46:45.344Z,2.25
2018-01-17T03:49:17.733Z,4.82
2018-01-17T03:51:49.738Z,1.80
2018-01-17T03:54:22.191Z,2.33
2018-01-17T03:56:53.796Z,2.95
2018-01-17T03:59:25.204Z,2.55
2018-01-17T04:01:57.203Z,1.90
2018-01-17T04:04:29.165Z,5.35
2018-01-17T04:07:00.727Z,2.60
2018-01-17T04:09:34.178Z,2.97
2018-01-17T04:12:08.839Z,2.10
2018-01-17T04:14:40.129Z,3.22
2018-01-17T04:17:12.139Z,3.90
2018-01-17T04:19:43.890Z,3.78
2018-01-17T04:22:15.594Z,5.53
2018-01-17T04:24:46.577Z,4.37
2018-01-17T04:27:18.108Z,4.72
2018-01-17T04:29:50.539Z,3.25
2018-01-17T04:32:22.501Z,4.45
2018-01-17T04:34:54.348Z,3.00
2018-01-17T04:37:26.119Z,1.90
2018-01-17T04:39:57.701Z,6.00
2018-01-17T04:42:29.291Z,3.28
2018-01-17T04:45:02.451Z,3.33
2018-01-17T04:47:35.672Z,4.43
2018-01-17T04:50:07.525Z,2.62
2018-01-17T04:52:39.252Z,1.80
2018-01-17T04:55:10.926Z,2.47
2018-01-17T04:57:42.657Z,5.55
2018-01-17T05:00:14.914Z,1.45
2018-01-17T05:02:46.625Z,1.67
2018-01-17T05:05:18.244Z,1.85
2018-01-17T05:07:51.479Z,1.20
2018-01-17T05:10:23.091Z,1.33
2018-01-17T05:12:54.878Z,1.67
2018-01-17T05:15:26.880Z,2.08
2018-01-17T05:17:57.942Z,2.58
2018-01-17T05:20:30.038Z,1.30
2018-01-17T05:23:01.324Z,1.65
2018-01-17T05:25:35.311Z,0.77
2018-01-17T05:28:06.633Z,1.10
2018-01-17T05:30:39.994Z,0.70
2018-01-17T05:33:11.561Z,0.80
2018-01-17T05:35:43.763Z,1.60
2018-01-17T05:38:15.532Z,0.77
2018-01-17T05:44:21.358Z,0.80
2018-01-17T05:46:53.206Z,0.95
2018-01-17T05:49:24.746Z,0.82
2018-01-17T05:51:55.907Z,2.67
2018-01-17T05:54:27.472Z,0.80
2018-01-17T05:56:59.689Z,0.60
2018-01-17T05:59:33.221Z,1.00
2018-01-17T06:02:06.680Z,0.70
2018-01-17T06:04:39.680Z,0.70
2018-01-17T06:07:11.099Z,1.12
2018-01-17T06:09:42.078Z,0.80
2018-01-17T06:12:14.599Z,0.75
2018-01-17T06:14:46.987Z,1.62
2018-01-17T06:17:19.214Z,0.95
2018-01-17T06:19:51.254Z,0.70
2018-01-17T06:22:34.711Z,0.73
2018-01-17T06:25:08.953Z,0.62
2018-01-17T06:27:41.150Z,0.75
2018-01-17T06:32:48.275Z,0.57
2018-01-17T06:35:19.467Z,0.68
2018-01-17T06:37:50.866Z,0.70
2018-01-17T06:40:22.097Z,0.60
2018-01-17T06:42:54.275Z,0.65
2018-01-17T06:45:25.964Z,0.60
2018-01-17T06:47:59.113Z,0.70
2018-01-17T06:50:30.177Z,0.60
2018-01-17T06:53:01.301Z,0.77
2018-01-17T06:55:33.680Z,0.75
2018-01-17T06:58:04.921Z,1.17
2018-01-17T07:00:37.915Z,0.80
2018-01-17T07:03:10.604Z,0.75
2018-01-17T07:05:42.285Z,0.70
2018-01-17T07:08:15.252Z,1.75
2018-01-17T07:10:47.497Z,0.70
2018-01-17T07:13:19.678Z,0.95
2018-01-17T07:15:51.264Z,0.95
2018-01-17T07:18:22.378Z,2.05
2018-01-17T07:20:53.887Z,1.15
2018-01-17T07:23:25.133Z,0.70
2018-01-17T07:25:58.057Z,0.80
2018-01-17T07:28:30.268Z,0.82
2018-01-17T07:31:03.125Z,0.70
2018-01-17T07:33:36.417Z,1.02
2018-01-17T07:36:08.119Z,0.70
2018-01-17T07:38:39.302Z,0.85
2018-01-17T07:41:11.582Z,0.90
2018-01-17T07:43:43.144Z,0.90
2018-01-17T07:46:15.188Z,1.52
2018-01-17T07:48:47.713Z,0.90
2018-01-17T07:51:20.326Z,0.80
2018-01-17T07:53:51.674Z,3.70
2018-01-17T07:56:22.714Z,2.45
2018-01-17T07:58:54.697Z,1.02
2018-01-17T08:01:25.940Z,0.90
2018-01-17T08:03:58.419Z,0.80
2018-01-17T08:06:57.533Z,1.00
2018-01-17T08:13:03.369Z,1.23
2018-01-17T08:23:11.689Z,3.25
2018-01-17T08:25:56.445Z,0.80
2018-01-17T08:28:26.099Z,1.35
2018-01-17T08:30:59.105Z,3.83
2018-01-17T08:34:11.647Z,1.15
2018-01-17T08:37:15.813Z,1.05
2018-01-17T08:39:48.480Z,0.95
2018-01-17T08:42:23.627Z,0.82
2018-01-17T08:44:56.815Z,0.88
2018-01-17T08:47:29.515Z,1.62
2018-01-17T08:50:00.774Z,0.93
2018-01-17T08:52:45.886Z,1.52
2018-01-17T09:01:08.648Z,1.20
2018-01-17T09:03:52.577Z,0.98
2018-01-17T09:06:24.225Z,2.78
2018-01-17T09:08:57.109Z,1.35
2018-01-17T09:11:28.811Z,0.90
2018-01-17T09:14:00.159Z,0.70
2018-01-17T09:16:31.210Z,1.08
2018-01-17T09:19:04.415Z,0.73
2018-01-17T09:21:38.842Z,0.70
2018-01-17T09:24:11.464Z,0.70
2018-01-17T09:26:42.889Z,0.60
2018-01-17T09:29:14.222Z,1.08
2018-01-17T09:31:46.034Z,1.00
2018-01-17T09:34:17.707Z,1.55
2018-01-17T09:36:48.770Z,1.23
2018-01-17T09:39:20.043Z,1.33
2018-01-17T09:41:52.842Z,1.67
2018-01-17T09:45:18.004Z,2.83
2018-01-17T09:47:58.034Z,2.70
2018-01-17T10:08:13.652Z,7.43
2018-01-17T10:10:46.668Z,2.08
2018-01-17T10:13:20.673Z,1.20
2018-01-17T10:15:52.172Z,1.12
2018-01-17T10:18:36.137Z,1.40
2018-01-17T10:21:07.463Z,1.33
2018-01-17T10:23:39.693Z,3.50
2018-01-17T10:26:10.896Z,2.67
2018-01-17T10:28:42.589Z,2.00
2018-01-17T10:31:14.471Z,1.67
2018-01-17T10:33:45.931Z,1.20
2018-01-17T10:36:17.998Z,4.05
2018-01-17T10:38:58.522Z,3.23
2018-01-17T10:41:31.359Z,1.83
2018-01-17T10:44:03.202Z,1.13
2018-01-17T10:46:36.758Z,2.43
2018-01-17T10:49:08.190Z,1.43
2018-01-17T10:51:39.496Z,1.40
2018-01-17T10:54:10.805Z,1.10
2018-01-17T10:56:42.408Z,1.53
2018-01-17T10:59:13.441Z,1.30
2018-01-17T11:01:44.626Z,1.52
2018-01-17T11:04:15.712Z,1.83
2018-01-17T11:06:47.205Z,2.17
2018-01-17T11:09:19.086Z,2.70
2018-01-17T11:11:50.922Z,1.00
2018-01-17T11:14:22.059Z,1.23
2018-01-17T11:16:53.285Z,1.40
2018-01-17T11:19:25.167Z,1.37
2018-01-17T11:21:56.390Z,1.65
2018-01-17T11:24:28.652Z,3.58
2018-01-17T11:28:00.293Z,1.20
2018-01-17T11:30:38.983Z,2.60
2018-01-17T11:33:10.349Z,2.58
2018-01-17T11:35:43.155Z,1.60
2018-01-17T11:38:14.572Z,1.20
2018-01-17T11:40:45.722Z,1.27
2018-01-17T11:43:18.475Z,1.80
2018-01-17T11:45:49.726Z,1.20
2018-01-17T11:48:22.865Z,1.67
2018-01-17T11:50:54.540Z,2.15
2018-01-17T11:53:25.735Z,1.60
2018-01-17T11:55:57.137Z,1.70
2018-01-17T11:58:30.550Z,1.25
2018-01-17T12:01:01.813Z,1.10
2018-01-17T12:03:36.228Z,1.58
2018-01-17T12:06:09.424Z,3.30
2018-01-17T12:08:41.730Z,1.40
2018-01-17T12:11:14.634Z,1.75
2018-01-17T12:13:46.591Z,1.95
2018-01-17T12:16:18.022Z,1.10
2018-01-17T12:18:50.762Z,1.20
2018-01-17T12:21:22.752Z,1.67
2018-01-17T12:23:54.136Z,1.35
2018-01-17T12:26:25.770Z,1.10
2018-01-17T12:28:57.439Z,1.12
2018-01-17T12:31:45.582Z,3.78
2018-01-17T12:34:17.915Z,4.50
2018-01-17T12:36:49.194Z,2.50
2018-01-17T12:39:21.292Z,1.62
2018-01-17T12:41:52.916Z,1.50
2018-01-17T12:44:24.664Z,1.30
2018-01-17T12:46:55.771Z,1.85
2018-01-17T12:49:26.893Z,5.60
2018-01-17T12:51:58.246Z,2.20
2018-01-17T12:54:29.329Z,1.50
2018-01-17T12:57:01.002Z,6.90
2018-01-17T12:59:39.172Z,2.55
2018-01-17T13:02:30.289Z,3.33
2018-01-17T13:05:02.212Z,1.50
2018-01-17T13:07:35.473Z,2.90
2018-01-17T13:16:40.658Z,4.10
2018-01-17T13:19:20.983Z,2.15
2018-01-17T13:21:53.900Z,1.90
2018-01-17T13:24:26.070Z,2.97
2018-01-17T13:27:12.766Z,5.32
2018-01-17T13:32:29.557Z,2.20
2018-01-17T13:35:00.899Z,1.70
2018-01-17T13:37:34.417Z,1.63
2018-01-17T13:40:07.064Z,1.20
2018-01-17T13:42:40.498Z,3.00
2018-01-17T13:45:12.407Z,4.05
2018-01-17T13:47:43.621Z,2.00
2018-01-17T13:50:14.840Z,3.15
2018-01-17T13:52:47.536Z,3.42
2018-01-17T13:55:18.820Z,4.50
2018-01-17T13:57:50.326Z,1.95
2018-01-17T14:00:22.023Z,1.55
2018-01-17T14:02:53.567Z,2.97
2018-01-17T14:05:24.872Z,3.95
2018-01-17T14:07:56.454Z,3.67
2018-01-17T14:10:27.874Z,1.48
2018-01-17T14:12:59.588Z,2.00
2018-01-17T14:15:30.931Z,3.53
2018-01-17T14:18:03.803Z,4.10
2018-01-17T14:20:38.325Z,2.20
2018-01-17T14:23:10.248Z,2.45
2018-01-17T14:25:41.508Z,3.75
2018-01-17T14:28:12.918Z,2.35
2018-01-17T14:30:44.442Z,3.03
2018-01-17T14:33:15.653Z,2.40
2018-01-17T14:35:47.037Z,2.70
2018-01-17T14:38:18.781Z,3.30
2018-01-17T14:40:50.229Z,1.40
2018-01-17T14:43:21.771Z,1.30
2018-01-17T14:45:53.473Z,2.90
2018-01-17T14:48:25.042Z,1.52
2018-01-17T14:50:56.582Z,1.23
2018-01-17T14:53:27.921Z,6.75
2018-01-17T14:55:59.832Z,2.20
2018-01-17T14:58:31.439Z,2.55
2018-01-17T15:01:02.950Z,1.37
2018-01-17T15:03:34.550Z,5.18
2018-01-17T15:06:06.258Z,1.27
2018-01-17T15:08:39.614Z,2.92
2018-01-17T15:11:11.133Z,1.90
2018-01-17T15:13:44.417Z,1.85
2018-01-17T15:16:16.359Z,1.90
2018-01-17T15:18:48.023Z,2.05
2018-01-17T15:21:19.917Z,1.83
2018-01-17T15:23:51.654Z,1.70
2018-01-17T15:26:23.821Z,8.68
2018-01-17T15:28:55.964Z,2.80
2018-01-17T15:31:46.426Z,3.40
2018-01-17T15:34:26.624Z,3.12
2018-01-17T15:36:59.197Z,5.62
2018-01-17T15:39:30.497Z,3.28
2018-01-17T15:42:02.419Z,5.72
2018-01-17T15:44:34.861Z,3.53
2018-01-17T15:47:06.443Z,3.42
2018-01-17T15:49:46.085Z,2.45
2018-01-17T15:54:59.596Z,2.03
2018-01-17T15:57:32.043Z,3.92
2018-01-17T16:00:03.371Z,4.65
2018-01-17T16:05:42.482Z,1.87
2018-01-17T16:08:13.731Z,2.28
2018-01-17T16:10:44.968Z,2.75
2018-01-17T16:13:16.514Z,4.47
2018-01-17T16:15:48.429Z,3.22
2018-01-17T16:18:22.358Z,2.67
2018-01-17T16:20:54.288Z,2.42
2018-01-17T16:23:25.471Z,4.18
2018-01-17T16:25:56.684Z,3.10
2018-01-17T16:28:28.501Z,2.65
2018-01-17T16:30:59.958Z,3.00
2018-01-17T16:33:36.063Z,2.78
2018-01-17T16:36:10.641Z,3.70
2018-01-17T16:38:42.045Z,8.27
2018-01-17T16:41:17.842Z,2.70
2018-01-17T16:43:50.468Z,2.20
2018-01-17T16:46:22.517Z,2.12
2018-01-17T16:48:54.907Z,3.87
2018-01-17T16:51:27.327Z,2.17
2018-01-17T16:53:59.945Z,2.78
2018-01-17T16:57:10.938Z,2.83
2018-01-17T16:59:45.767Z,2.35
2018-01-17T17:02:17.242Z,2.42
2018-01-17T17:05:00.324Z,2.90
2018-01-17T17:07:34.030Z,3.12
2018-01-17T17:10:06.102Z,4.53
2018-01-17T17:12:40.434Z,3.78
2018-01-17T17:15:14.692Z,4.05
2018-01-17T17:17:46.411Z,4.50
2018-01-17T17:20:18.676Z,2.92
2018-01-17T17:22:50.080Z,6.00
2018-01-17T17:25:21.382Z,3.00
2018-01-17T17:27:55.772Z,4.05
2018-01-17T17:30:28.465Z,4.20
2018-01-17T17:33:03.773Z,2.42
2018-01-17T17:35:41.994Z,3.03
2018-01-17T17:38:14.747Z,2.37
2018-01-17T17:40:47.087Z,2.85
2018-01-17T17:43:20.248Z,2.75
2018-01-17T17:45:52.710Z,2.17
2018-01-17T17:48:25.519Z,2.87
2018-01-17T17:50:58.830Z,4.68
2018-01-17T17:53:31.126Z,3.22
2018-01-17T17:56:10.862Z,4.35
2018-01-17T17:58:44.226Z,1.70
2018-01-17T18:01:16.334Z,2.90
2018-01-17T18:03:48.368Z,2.25
2018-01-17T18:06:21.054Z,1.85
2018-01-17T18:08:52.968Z,1.75
2018-01-17T18:11:24.307Z,2.10
2018-01-17T18:13:55.824Z,1.92
2018-01-17T18:16:27.497Z,2.58
2018-01-17T18:18:59.115Z,2.47
2018-01-17T18:21:30.789Z,1.75
2018-01-17T18:24:02.221Z,1.95
2018-01-17T18:26:34.120Z,2.67
2018-01-17T18:31:26.354Z,2.17
2018-01-17T18:33:57.940Z,3.53
2018-01-17T18:36:29.310Z,2.05
2018-01-17T18:39:01.196Z,2.37
2018-01-17T18:41:35.775Z,2.00
2018-01-17T18:44:09.683Z,3.62
2018-01-17T18:46:43.931Z,2.40
2018-01-17T18:49:17.515Z,3.30
2018-01-17T18:51:51.133Z,2.40
2018-01-17T18:54:24.981Z,2.15
2018-01-17T18:56:57.114Z,2.03
2018-01-17T18:59:28.718Z,4.00
2018-01-17T19:02:00.277Z,2.05
2018-01-17T19:04:36.178Z,3.62
2018-01-17T19:07:08.213Z,3.85
2018-01-17T19:09:39.840Z,4.12
2018-01-17T19:12:11.856Z,3.30
2018-01-17T19:14:46.142Z,2.28
2018-01-17T19:17:25.177Z,2.87
2018-01-17T19:19:56.746Z,5.55
2018-01-17T19:22:29.364Z,3.17
2018-01-17T19:25:01.104Z,4.45
2018-01-17T19:27:38.472Z,4.12
2018-01-17T19:30:11.818Z,4.87
2018-01-17T19:32:43.685Z,3.03
2018-01-17T19:35:15.400Z,5.55
2018-01-17T19:37:48.774Z,5.53
2018-01-17T19:40:26.753Z,5.25
2018-01-17T19:43:00.615Z,6.60
2018-01-17T19:45:35.915Z,5.10
2018-01-17T19:48:08.773Z,3.75
2018-01-17T19:50:40.180Z,3.70
2018-01-17T19:53:11.767Z,3.03
2018-01-17T19:55:43.272Z,4.80
2018-01-17T19:58:15.646Z,8.90
2018-01-17T20:00:47.398Z,5.32
2018-01-17T20:03:19.018Z,5.55
2018-01-17T20:05:50.689Z,3.85
2018-01-17T20:08:22.642Z,4.72
2018-01-17T20:10:54.432Z,2.87
2018-01-17T20:13:26.906Z,4.45
2018-01-17T20:15:58.058Z,4.90
2018-01-17T20:18:30.929Z,5.35
2018-01-17T20:21:02.723Z,6.55
2018-01-17T20:23:37.085Z,3.90
2018-01-17T20:26:08.777Z,8.32
2018-01-17T20:28:39.922Z,4.72
2018-01-17T20:31:12.439Z,9.48
2018-01-17T20:33:44.173Z,4.62
2018-01-17T20:36:17.187Z,5.68
2018-01-17T20:38:50.126Z,9.05
2018-01-17T20:41:22.855Z,7.60
2018-01-17T20:43:55.496Z,6.87
2018-01-17T20:46:26.651Z,6.32
2018-01-17T20:48:58.778Z,6.50
2018-01-17T20:51:29.913Z,6.37
2018-01-17T20:54:01.234Z,7.80
2018-01-17T20:56:36.590Z,7.78
2018-01-17T20:59:09.428Z,8.25
2018-01-17T21:01:41.385Z,10.07
2018-01-17T21:04:22.550Z,7.30
2018-01-17T21:06:53.894Z,7.28
2018-01-17T21:09:26.501Z,6.22
2018-01-17T21:11:58.282Z,5.07
2018-01-17T21:14:29.664Z,6.37
2018-01-17T21:17:02.076Z,4.85
2018-01-17T21:19:36.086Z,5.15
2018-01-17T21:22:08.542Z,2.65
2018-01-17T21:24:40.942Z,4.43
2018-01-17T21:27:12.171Z,4.25
2018-01-17T21:29:45.478Z,2.60
2018-01-17T21:32:17.231Z,4.07
2018-01-17T21:34:48.497Z,3.67
2018-01-17T21:37:22.512Z,2.35
2018-01-17T21:39:55.014Z,6.97
2018-01-17T21:42:30.225Z,3.90
2018-01-17T21:46:08.857Z,2.17
2018-01-17T21:48:39.959Z,1.90
2018-01-17T21:51:11.822Z,1.75
2018-01-17T21:53:44.321Z,1.65
2018-01-17T21:56:15.948Z,1.62
2018-01-17T21:58:47.213Z,2.17
2018-01-17T22:01:28.431Z,2.72
2018-01-17T22:04:01.292Z,3.72
2018-01-17T22:06:36.301Z,2.50
2018-01-17T22:09:09.424Z,2.83
2018-01-17T22:11:42.243Z,1.50
2018-01-17T22:14:13.739Z,1.87
2018-01-17T22:16:46.764Z,2.47
2018-01-17T22:19:20.872Z,2.90
2018-01-17T22:21:52.714Z,2.20
2018-01-17T22:24:24.624Z,4.68
2018-01-17T22:26:58.223Z,8.95
2018-01-17T22:29:31.338Z,8.95
2018-01-17T22:32:04.446Z,7.95
2018-01-17T22:34:38.832Z,6.50
2018-01-17T22:37:10.410Z,12.73
2018-01-17T22:39:42.042Z,9.90
2018-01-17T22:42:13.785Z,11.02
2018-01-17T22:44:45.901Z,8.63
2018-01-17T22:47:18.267Z,9.15
2018-01-17T22:49:51.099Z,10.02
2018-01-17T22:52:22.662Z,5.20
2018-01-17T22:54:54.729Z,15.10
2018-01-17T22:57:25.978Z,10.10
2018-01-17T22:59:57.643Z,10.63
2018-01-17T23:02:31.611Z,9.75
2018-01-17T23:05:08.628Z,9.48
2018-01-17T23:07:40.308Z,7.75
2018-01-17T23:10:13.096Z,7.20
2018-01-17T23:12:44.656Z,13.70
2018-01-17T23:15:16.726Z,8.02
2018-01-17T23:17:48.730Z,8.77
2018-01-17T23:20:20.075Z,6.70
2018-01-17T23:22:51.836Z,10.45
2018-01-17T23:25:23.773Z,8.27
2018-01-17T23:27:54.995Z,8.88
2018-01-17T23:30:26.153Z,10.93
2018-01-17T23:32:57.894Z,12.27
2018-01-17T23:35:29.138Z,11.57
2018-01-17T23:38:00.260Z,8.00
2018-01-17T23:40:33.486Z,6.25
